Time;durP1;ratioP1;P1;durP2;ratioP2;P2;SDS_P1;SDS_P2;PMS_P1;PMS_P2;Temp;Humidity;BMP_temperature;BMP_pressure;BME280_temperature;BME280_humidity;BME280_pressure;Samples;Min_cycle;Max_cycle;Signal;HPM_P1;HPM_P2
2021/03/20 00:01:37;;;;;;;;;;;;;;;28.80;21.36;100973.03;5078446;28;955;-36
2021/03/20 00:04:02;;;;;;;;;;;;;;;28.90;20.90;100978.13;5078117;28;1965;-37
2021/03/20 00:06:32;;;;;;;;;;;;;;;28.78;21.08;100976.97;5078109;28;740;-37
2021/03/20 00:08:57;;;;;;;;;;;;;;;28.90;21.24;100972.72;5078137;28;756;-37
2021/03/20 00:11:22;;;;;;;;;;;;;;;28.96;21.11;100968.41;5078311;28;816;-37
2021/03/20 00:13:48;;;;;;;;;;;;;;;29.09;21.05;100962.34;5077835;28;784;-36
2021/03/20 00:16:13;;;;;;;;;;;;;;;29.24;20.73;100964.16;5059712;28;844;-38
2021/03/20 00:18:39;;;;;;;;;;;;;;;29.38;20.66;100957.84;5078495;28;995;-37
2021/03/20 00:21:04;;;;;;;;;;;;;;;29.42;20.64;100956.44;5077434;28;814;-38
2021/03/20 00:23:29;;;;;;;;;;;;;;;29.58;20.26;100957.19;5078092;28;1910;-37
2021/03/20 00:25:55;;;;;;;;;;;;;;;28.94;20.72;100954.22;5077910;28;847;-35
2021/03/20 00:28:26;;;;;;;;;;;;;;;28.66;21.35;100950.34;5077646;28;848;-36
2021/03/20 00:30:56;;;;;;;;;;;;;;;28.96;21.18;100947.56;5077549;28;1107;-37
2021/03/20 00:33:21;;;;;;;;;;;;;;;29.25;20.86;100949.56;5078284;28;959;-45
2021/03/20 00:35:46;;;;;;;;;;;;;;;29.15;20.83;100953.44;5077738;28;913;-36
2021/03/20 00:38:12;;;;;;;;;;;;;;;29.11;20.86;100949.47;5077430;28;827;-40
2021/03/20 00:40:37;;;;;;;;;;;;;;;29.14;20.75;100959.06;5077656;28;827;-37
2021/03/20 00:43:02;;;;;;;;;;;;;;;29.07;20.65;100957.13;5077837;28;1955;-37
2021/03/20 00:45:28;;;;;;;;;;;;;;;28.77;21.07;100954.44;5077278;28;847;-37
2021/03/20 00:47:53;;;;;;;;;;;;;;;28.93;21.13;100952.53;5077633;28;939;-36
2021/03/20 00:50:19;;;;;;;;;;;;;;;28.99;20.76;100943.69;5076674;28;768;-37
2021/03/20 00:52:45;;;;;;;;;;;;;;;28.99;20.84;100940.13;5076958;28;775;-35
2021/03/20 00:55:10;;;;;;;;;;;;;;;29.03;20.84;100938.75;5077032;28;788;-38
2021/03/20 00:57:35;;;;;;;;;;;;;;;29.08;20.83;100936.28;5077351;28;731;-37
2021/03/20 01:00:01;;;;;;;;;;;;;;;29.06;21.13;100941.06;5076986;28;979;-38
2021/03/20 01:02:26;;;;;;;;;;;;;;;28.65;21.33;100939.72;5077156;28;1961;-36
2021/03/20 01:04:51;;;;;;;;;;;;;;;28.33;21.45;100940.75;5076979;28;770;-44
2021/03/20 01:07:17;;;;;;;;;;;;;;;28.41;21.96;100947.94;5076841;28;744;-35
2021/03/20 01:09:42;;;;;;;;;;;;;;;29.08;20.99;100942.53;5058437;28;820;-38
2021/03/20 01:12:07;;;;;;;;;;;;;;;29.27;20.90;100947.50;5076497;28;816;-36
2021/03/20 01:14:32;;;;;;;;;;;;;;;29.39;20.71;100947.84;5076735;28;796;-36
2021/03/20 01:16:58;;;;;;;;;;;;;;;29.15;20.83;100953.44;5077224;28;967;-35
2021/03/20 01:19:23;;;;;;;;;;;;;;;29.40;20.43;100953.06;5076896;28;760;-37
2021/03/20 01:21:48;;;;;;;;;;;;;;;29.46;20.42;100957.69;5076659;28;863;-41
2021/03/20 01:24:13;;;;;;;;;;;;;;;28.94;20.96;100959.63;5076684;28;1898;-38
2021/03/20 01:26:39;;;;;;;;;;;;;;;28.80;21.21;100958.63;5076668;28;755;-37
2021/03/20 01:29:04;;;;;;;;;;;;;;;29.00;21.01;100955.34;5076387;28;856;-38
2021/03/20 01:31:29;;;;;;;;;;;;;;;28.86;21.08;100968.72;5076730;28;1171;-35
2021/03/20 01:33:55;;;;;;;;;;;;;;;28.73;21.14;100969.38;5096473;28;870;-35
2021/03/20 01:36:20;;;;;;;;;;;;;;;28.79;21.27;100967.78;5097000;28;787;-36
2021/03/20 01:38:45;;;;;;;;;;;;;;;29.13;20.91;100960.09;5097025;28;790;-38
2021/03/20 01:41:13;;;;;;;;;;;;;;;28.94;21.18;100962.34;5096469;28;843;-35
2021/03/20 01:43:39;;;;;;;;;;;;;;;28.78;21.16;100958.81;5096643;28;1969;-36
2021/03/20 01:46:23;;;;;;;;;;;;;;;28.42;21.71;100955.03;5096922;28;819;-37
2021/03/20 01:48:48;;;;;;;;;;;;;;;28.73;21.70;100962.09;5096023;28;935;-38
2021/03/20 01:51:13;;;;;;;;;;;;;;;29.19;20.93;100962.88;5096763;28;902;-38
2021/03/20 01:53:38;;;;;;;;;;;;;;;29.26;20.97;100964.81;5078223;28;1150;-34
2021/03/20 01:56:05;;;;;;;;;;;;;;;29.47;20.69;100961.25;5096681;28;799;-38
2021/03/20 01:58:31;;;;;;;;;;;;;;;28.98;21.02;100965.56;5096538;28;850;-36
2021/03/20 02:01:02;;;;;;;;;;;;;;;28.55;21.28;100964.34;5064006;28;872;-38
2021/03/20 02:03:29;;;;;;;;;;;;;;;28.88;21.25;100963.13;5062843;28;1919;-37
2021/03/20 02:05:54;;;;;;;;;;;;;;;29.23;20.89;100960.59;5080659;28;763;-38
2021/03/20 02:08:19;;;;;;;;;;;;;;;29.16;20.65;100957.81;5080495;28;911;-44
2021/03/20 02:10:45;;;;;;;;;;;;;;;28.76;21.36;100960.88;5080542;28;803;-38
2021/03/20 02:13:19;;;;;;;;;;;;;;;29.28;20.82;100973.59;5062633;28;728;-37
2021/03/20 02:15:45;;;;;;;;;;;;;;;29.43;20.65;100979.78;5080204;28;866;-37
2021/03/20 02:18:10;;;;;;;;;;;;;;;28.75;21.12;100982.72;5062849;28;1014;-37
2021/03/20 02:20:36;;;;;;;;;;;;;;;28.38;21.54;100991.59;5079789;28;831;-38
2021/03/20 02:23:04;;;;;;;;;;;;;;;28.29;22.04;100996.25;5080050;28;1902;-37
2021/03/20 02:25:47;;;;;;;;;;;;;;;28.35;21.94;101000.94;5080591;28;759;-38
2021/03/20 02:28:31;;;;;;;;;;;;;;;28.24;22.08;100996.78;5079833;28;863;-35
2021/03/20 02:31:15;;;;;;;;;;;;;;;28.59;21.50;101001.69;5079778;28;1302;-37
2021/03/20 02:33:58;;;;;;;;;;;;;;;28.88;21.05;101001.84;5098110;28;955;-38
2021/03/20 02:36:27;;;;;;;;;;;;;;;28.80;21.42;101007.38;5099668;28;808;-38
2021/03/20 02:38:56;;;;;;;;;;;;;;;28.82;21.37;101008.03;5100152;28;751;-38
2021/03/20 02:41:29;;;;;;;;;;;;;;;28.93;21.43;101010.25;5100072;28;1017;-38
2021/03/20 02:43:59;;;;;;;;;;;;;;;29.17;20.87;101000.16;5081718;28;1907;-41
2021/03/20 02:46:27;;;;;;;;;;;;;;;28.47;21.38;101008.59;5081765;28;946;-36
2021/03/20 02:49:11;;;;;;;;;;;;;;;27.87;22.19;101003.91;5061678;28;872;-37
2021/03/20 02:51:55;;;;;;;;;;;;;;;28.11;21.88;101002.00;5079524;28;794;-38
2021/03/20 02:54:23;;;;;;;;;;;;;;;28.30;21.91;101005.19;5079641;28;745;-36
2021/03/20 02:56:51;;;;;;;;;;;;;;;28.57;21.51;101011.88;5079363;28;807;-38
2021/03/20 02:59:16;;;;;;;;;;;;;;;28.47;21.64;101009.44;5061713;28;760;-38
2021/03/20 03:01:43;;;;;;;;;;;;;;;28.71;21.43;101012.88;5061792;28;998;-37
2021/03/20 03:04:09;;;;;;;;;;;;;;;28.70;21.38;101013.91;5060897;28;1901;-37
2021/03/20 03:06:41;;;;;;;;;;;;;;;28.82;21.32;101016.16;5061450;28;796;-36
2021/03/20 03:09:11;;;;;;;;;;;;;;;28.89;21.04;101011.66;5079448;28;819;-37
2021/03/20 03:11:49;;;;;;;;;;;;;;;28.34;21.88;101012.78;5060594;28;793;-37
2021/03/20 03:14:19;;;;;;;;;;;;;;;28.29;22.02;101009.78;5078731;28;797;-36
2021/03/20 03:16:45;;;;;;;;;;;;;;;28.76;21.33;101019.63;5079421;28;912;-36
2021/03/20 03:19:12;;;;;;;;;;;;;;;29.00;21.22;101017.63;5079133;28;809;-38
2021/03/20 03:21:39;;;;;;;;;;;;;;;29.14;20.79;101013.22;5061660;28;792;-37
2021/03/20 03:24:05;;;;;;;;;;;;;;;29.28;20.93;101003.41;5061431;28;1953;-36
2021/03/20 03:26:35;;;;;;;;;;;;;;;29.38;20.65;101005.78;5060902;28;784;-40
2021/03/20 03:29:03;;;;;;;;;;;;;;;29.00;20.83;101010.34;5078782;28;875;-36
2021/03/20 03:31:33;;;;;;;;;;;;;;;28.77;21.12;101011.31;5061452;28;1260;-40
2021/03/20 03:34:18;;;;;;;;;;;;;;;28.84;21.00;101005.97;5060599;28;768;-36
2021/03/20 03:36:46;;;;;;;;;;;;;;;28.59;21.32;101004.38;5078586;28;1173;-36
2021/03/20 03:39:22;;;;;;;;;;;;;;;28.99;21.11;100997.84;5077840;28;736;-37
2021/03/20 03:41:47;;;;;;;;;;;;;;;29.05;21.16;101009.78;5076883;28;998;-35
2021/03/20 03:44:12;;;;;;;;;;;;;;;29.04;21.18;101008.97;5077397;28;1917;-38
2021/03/20 03:46:38;;;;;;;;;;;;;;;28.80;21.39;101010.91;5078938;28;939;-37
2021/03/20 03:49:05;;;;;;;;;;;;;;;28.83;21.40;101015.94;5060076;28;1325;-38
2021/03/20 03:51:30;;;;;;;;;;;;;;;28.59;21.54;101006.28;5078767;28;795;-38
2021/03/20 03:53:56;;;;;;;;;;;;;;;28.91;21.13;101017.72;5078069;28;883;-37
2021/03/20 03:56:34;;;;;;;;;;;;;;;28.96;21.41;101023.41;5078553;28;836;-37
2021/03/20 03:59:12;;;;;;;;;;;;;;;29.20;21.06;101013.31;5078849;28;748;-38
2021/03/20 04:01:41;;;;;;;;;;;;;;;28.72;21.18;101025.41;5060670;28;931;-37
2021/03/20 04:04:24;;;;;;;;;;;;;;;28.59;21.72;101025.22;5060043;28;1957;-36
2021/03/20 04:07:06;;;;;;;;;;;;;;;28.81;21.50;101030.72;5060345;28;840;-39
2021/03/20 04:09:51;;;;;;;;;;;;;;;28.89;21.13;101027.91;5060004;28;813;-38
2021/03/20 04:12:32;;;;;;;;;;;;;;;29.19;21.27;101027.91;5077222;28;1168;-37
2021/03/20 04:15:03;;;;;;;;;;;;;;;29.23;21.21;101030.22;5078372;28;855;-37
2021/03/20 04:17:30;;;;;;;;;;;;;;;29.14;21.51;101033.03;5086804;28;943;-35
2021/03/20 04:20:14;;;;;;;;;;;;;;;28.68;22.16;101034.91;5080316;28;802;-38
2021/03/20 04:22:43;;;;;;;;;;;;;;;28.91;21.64;101033.13;5098080;28;1961;-37
2021/03/20 04:25:21;;;;;;;;;;;;;;;28.89;21.24;101033.31;5079753;28;985;-38
2021/03/20 04:27:48;;;;;;;;;;;;;;;28.15;22.46;101032.22;5080205;28;752;-37
2021/03/20 04:30:18;;;;;;;;;;;;;;;28.24;22.12;101029.25;5079832;28;1170;-32
2021/03/20 04:32:47;;;;;;;;;;;;;;;27.60;22.73;101036.69;5078837;28;951;-32
2021/03/20 04:35:14;;;;;;;;;;;;;;;27.47;23.22;101036.41;5080217;28;772;-34
2021/03/20 04:37:40;;;;;;;;;;;;;;;28.06;22.71;101036.88;5097976;28;767;-32
2021/03/20 04:40:06;;;;;;;;;;;;;;;28.52;22.06;101037.81;5079437;28;815;-33
2021/03/20 04:42:33;;;;;;;;;;;;;;;27.93;20.17;101034.75;5097607;28;1979;-32
2021/03/20 04:45:04;;;;;;;;;;;;;;;22.56;19.07;101031.31;5079900;28;787;-33
2021/03/20 04:47:29;;;;;;;;;;;;;;;20.02;21.29;101024.94;5078195;28;1026;-30
2021/03/20 04:49:56;;;;;;;;;;;;;;;23.93;19.70;101028.09;5097878;28;740;-38
2021/03/20 04:52:22;;;;;;;;;;;;;;;22.78;19.20;101026.63;5079591;28;795;-34
2021/03/20 04:54:48;;;;;;;;;;;;;;;22.56;20.03;101020.59;5097371;28;1421;-41
2021/03/20 04:57:31;;;;;;;;;;;;;;;22.23;19.28;101028.16;5097721;28;853;-35
2021/03/20 04:59:56;;;;;;;;;;;;;;;22.75;18.62;101026.94;5097536;28;732;-35
2021/03/20 05:02:21;;;;;;;;;;;;;;;23.17;17.80;101030.13;5096343;28;1910;-34
2021/03/20 05:04:46;;;;;;;;;;;;;;;21.06;18.93;101031.34;5083562;28;783;-47
2021/03/20 05:07:12;;;;;;;;;;;;;;;19.66;20.61;101034.03;5077068;28;788;-40
2021/03/20 05:09:37;;;;;;;;;;;;;;;21.82;18.72;101039.03;5059292;28;768;-37
2021/03/20 05:12:29;;;;;;;;;;;;;;;18.04;22.89;101043.78;5059057;28;839;-38
2021/03/20 05:14:57;;;;;;;;;;;;;;;20.80;20.17;101045.16;5072816;28;1770;-36
2021/03/20 05:17:22;;;;;;;;;;;;;;;22.20;19.92;101056.09;5067691;28;978;-36
2021/03/20 05:19:48;;;;;;;;;;;;;;;24.26;17.97;101064.31;5076876;28;1499;-36
2021/03/20 05:22:19;;;;;;;;;;;;;;;25.01;17.98;101065.66;5076709;28;1909;-37
2021/03/20 05:24:45;;;;;;;;;;;;;;;25.53;18.28;101061.13;5076642;28;741;-37
2021/03/20 05:27:12;;;;;;;;;;;;;;;25.94;18.24;101070.34;5076620;28;847;-33
2021/03/20 05:29:37;;;;;;;;;;;;;;;26.14;18.31;101070.00;5059182;28;748;-35
2021/03/20 05:32:03;;;;;;;;;;;;;;;26.33;18.34;101073.38;5058130;28;1072;-32
2021/03/20 05:34:38;;;;;;;;;;;;;;;25.95;19.30;101080.09;5076547;28;804;-33
2021/03/20 05:37:04;;;;;;;;;;;;;;;25.98;19.41;101078.91;5083323;28;1229;-32
2021/03/20 05:39:29;;;;;;;;;;;;;;;26.24;19.12;101088.72;5096664;28;835;-30
2021/03/20 05:42:00;;;;;;;;;;;;;;;26.61;18.80;101086.53;5096777;28;859;-31
2021/03/20 05:44:38;;;;;;;;;;;;;;;26.75;19.10;101083.13;5079147;28;1985;-33
2021/03/20 05:47:07;;;;;;;;;;;;;;;26.92;19.06;101093.00;5095710;28;994;-31
2021/03/20 05:49:35;;;;;;;;;;;;;;;26.90;19.22;101079.69;5079056;28;825;-34
2021/03/20 05:52:18;;;;;;;;;;;;;;;26.83;19.39;101086.78;5096852;28;763;-31
2021/03/20 05:54:43;;;;;;;;;;;;;;;26.76;19.42;101078.53;5078161;28;836;-41
2021/03/20 05:57:12;;;;;;;;;;;;;;;26.80;19.61;101084.44;5096752;28;732;-35
2021/03/20 06:00:03;;;;;;;;;;;;;;;26.99;19.71;101081.34;5097271;28;772;-33
2021/03/20 06:02:30;;;;;;;;;;;;;;;27.17;19.69;101101.06;5092210;28;1964;-38
2021/03/20 06:05:14;;;;;;;;;;;;;;;27.30;19.63;101097.78;5096569;28;821;-36
2021/03/20 06:07:45;;;;;;;;;;;;;;;27.23;19.79;101101.19;5096863;28;823;-47
2021/03/20 06:10:23;;;;;;;;;;;;;;;27.35;19.54;101098.97;5096217;28;779;-34
2021/03/20 06:12:48;;;;;;;;;;;;;;;26.82;20.13;101102.16;5078825;28;811;-33
2021/03/20 06:15:14;;;;;;;;;;;;;;;26.78;20.35;101108.91;5096596;28;772;-35
2021/03/20 06:17:45;;;;;;;;;;;;;;;27.28;19.99;101106.06;5094941;28;1010;-35
2021/03/20 06:20:28;;;;;;;;;;;;;;;27.39;19.69;101112.97;5096653;28;910;-31
2021/03/20 06:23:07;;;;;;;;;;;;;;;26.71;21.00;101113.31;5096551;28;1897;-34
2021/03/20 06:25:33;;;;;;;;;;;;;;;27.21;20.17;101116.72;5096250;28;732;-30
2021/03/20 06:27:58;;;;;;;;;;;;;;;27.48;20.21;101113.75;5096776;28;748;-31
2021/03/20 06:30:42;;;;;;;;;;;;;;;27.06;20.56;101113.91;5077955;28;1555;-31
2021/03/20 06:33:07;;;;;;;;;;;;;;;26.99;20.53;101124.53;5095353;28;930;-35
2021/03/20 06:35:40;;;;;;;;;;;;;;;26.57;21.22;101121.09;5096177;28;851;-30
2021/03/20 06:38:06;;;;;;;;;;;;;;;26.90;21.02;101131.84;5096375;28;824;-31
2021/03/20 06:40:32;;;;;;;;;;;;;;;26.87;21.30;101131.31;5078104;28;728;-30
2021/03/20 06:42:57;;;;;;;;;;;;;;;26.60;20.02;101123.44;5096326;28;1902;-30
2021/03/20 06:45:25;;;;;;;;;;;;;;;24.68;21.35;101113.88;5096046;28;847;-31
2021/03/20 06:47:51;;;;;;;;;;;;;;;23.92;21.16;101112.38;5098413;28;998;-32
2021/03/20 06:50:20;;;;;;;;;;;;;;;24.26;20.81;101113.56;5100213;28;820;-33
2021/03/20 06:52:46;;;;;;;;;;;;;;;24.24;20.47;101110.16;5099924;28;832;-31
2021/03/20 06:55:12;;;;;;;;;;;;;;;24.16;20.34;101115.44;5099360;28;907;-31
2021/03/20 06:57:37;;;;;;;;;;;;;;;24.08;20.25;101109.00;5100529;28;800;-28
2021/03/20 07:00:20;;;;;;;;;;;;;;;24.00;20.20;101111.63;5099841;28;879;-31
2021/03/20 07:03:04;;;;;;;;;;;;;;;24.60;19.41;101116.50;5098702;28;1901;-35
2021/03/20 07:05:34;;;;;;;;;;;;;;;24.40;19.61;101108.63;5099531;28;788;-44
2021/03/20 07:08:00;;;;;;;;;;;;;;;24.62;19.52;101109.13;5081460;28;809;-30
2021/03/20 07:10:29;;;;;;;;;;;;;;;24.55;19.76;101100.84;5099411;28;816;-33
2021/03/20 07:13:21;;;;;;;;;;;;;;;26.15;20.31;101104.88;5081159;28;800;-45
2021/03/20 07:16:06;;;;;;;;;;;;;;;26.36;20.77;101108.94;5095802;28;1236;-43
2021/03/20 07:18:37;;;;;;;;;;;;;;;26.04;21.32;101110.63;5097911;28;1229;-39
2021/03/20 07:21:17;;;;;;;;;;;;;;;26.33;20.79;101101.19;5099396;28;763;-35
2021/03/20 07:23:50;;;;;;;;;;;;;;;26.25;21.16;101096.63;5099179;28;1905;-31
2021/03/20 07:26:15;;;;;;;;;;;;;;;26.13;21.56;101095.25;5099407;28;832;-43
2021/03/20 07:28:46;;;;;;;;;;;;;;;26.05;21.23;101085.34;5081081;28;780;-38
2021/03/20 07:31:12;;;;;;;;;;;;;;;27.26;20.29;101089.19;5080417;28;1250;-43
2021/03/20 07:33:42;;;;;;;;;;;;;;;26.57;21.10;101090.56;5080129;28;967;-38
2021/03/20 07:36:16;;;;;;;;;;;;;;;26.53;21.15;101092.75;5081305;28;804;-38
2021/03/20 07:38:42;;;;;;;;;;;;;;;26.70;21.01;101101.66;5091222;28;1143;-36
2021/03/20 07:41:08;;;;;;;;;;;;;;;27.06;21.05;101100.41;5080886;28;763;-37
2021/03/20 07:43:33;;;;;;;;;;;;;;;26.52;21.68;101091.09;5098759;28;1910;-37
2021/03/20 07:46:11;;;;;;;;;;;;;;;26.36;21.25;101083.84;5098456;28;816;-30
2021/03/20 07:48:36;;;;;;;;;;;;;;;26.64;21.06;101087.00;5080043;28;1014;-35
2021/03/20 07:51:22;;;;;;;;;;;;;;;26.44;21.87;101083.00;5078706;28;795;-38
2021/03/20 07:53:48;;;;;;;;;;;;;;;26.55;21.70;101087.19;5078025;28;991;-34
2021/03/20 07:56:13;;;;;;;;;;;;;;;26.43;21.90;101087.53;5078662;28;841;-32
2021/03/20 07:58:45;;;;;;;;;;;;;;;26.47;21.94;101088.91;5078117;28;782;-41
2021/03/20 08:01:19;;;;;;;;;;;;;;;26.48;21.98;101089.72;5078611;28;755;-48
2021/03/20 08:03:46;;;;;;;;;;;;;;;26.47;21.86;101091.59;5078497;28;1965;-42
2021/03/20 08:06:11;;;;;;;;;;;;;;;26.60;21.85;101098.31;5060702;28;717;-41
2021/03/20 08:08:38;;;;;;;;;;;;;;;26.50;21.77;101099.34;5078173;28;732;-43
2021/03/20 08:11:03;;;;;;;;;;;;;;;27.03;21.30;101100.75;5077910;28;792;-33
2021/03/20 08:13:28;;;;;;;;;;;;;;;26.88;21.50;101101.47;5078356;28;795;-36
2021/03/20 08:15:57;;;;;;;;;;;;;;;26.89;21.60;101097.72;5078016;28;831;-33
2021/03/20 08:18:24;;;;;;;;;;;;;;;26.72;21.68;101096.94;5078117;28;943;-39
2021/03/20 08:20:55;;;;;;;;;;;;;;;26.81;21.64;101105.03;5078487;28;736;-43
2021/03/20 08:23:30;;;;;;;;;;;;;;;26.76;21.73;101100.13;5077660;28;1938;-35
2021/03/20 08:26:02;;;;;;;;;;;;;;;26.71;21.93;101092.56;5078125;28;1183;-42
2021/03/20 08:28:40;;;;;;;;;;;;;;;26.69;21.78;101091.06;5060322;28;760;-35
2021/03/20 08:31:07;;;;;;;;;;;;;;;26.76;21.76;101092.88;5075319;28;1027;-37
2021/03/20 08:33:35;;;;;;;;;;;;;;;26.95;21.92;101088.13;5079849;28;970;-39
2021/03/20 08:36:16;;;;;;;;;;;;;;;26.92;22.04;101093.00;5060086;28;740;-40
2021/03/20 08:39:02;;;;;;;;;;;;;;;27.07;21.54;101103.97;5077360;28;728;-40
2021/03/20 08:41:34;;;;;;;;;;;;;;;26.98;21.83;101103.97;5077632;28;780;-47
2021/03/20 08:44:17;;;;;;;;;;;;;;;27.06;21.57;101108.50;5077307;28;1973;-48
2021/03/20 08:46:43;;;;;;;;;;;;;;;26.98;21.86;101100.41;5077489;28;975;-42
2021/03/20 08:49:25;;;;;;;;;;;;;;;27.09;21.65;101100.06;5077491;28;826;-33
2021/03/20 08:52:00;;;;;;;;;;;;;;;27.17;21.58;101106.47;5059051;28;838;-42
2021/03/20 08:54:48;;;;;;;;;;;;;;;27.05;21.96;101104.13;5077685;28;747;-42
2021/03/20 08:57:16;;;;;;;;;;;;;;;27.18;21.67;101111.69;5048772;28;1173;-42
2021/03/20 08:59:52;;;;;;;;;;;;;;;27.21;21.80;101097.00;5059645;28;771;-42
2021/03/20 09:02:23;;;;;;;;;;;;;;;27.20;21.86;101098.84;5077127;28;1018;-48
2021/03/20 09:04:49;;;;;;;;;;;;;;;27.14;22.07;101094.16;5076897;28;835;-32
2021/03/20 09:07:18;;;;;;;;;;;;;;;27.08;22.09;101105.63;5058898;28;775;-36
2021/03/20 09:09:45;;;;;;;;;;;;;;;27.12;21.92;101109.69;5057935;28;812;-40
2021/03/20 09:12:26;;;;;;;;;;;;;;;27.22;21.96;101109.47;5068830;28;1565;-36
2021/03/20 09:14:51;;;;;;;;;;;;;;;27.23;21.75;101112.00;5096795;28;752;-32
2021/03/20 09:17:18;;;;;;;;;;;;;;;27.23;21.87;101116.56;5089997;28;939;-36
2021/03/20 09:19:52;;;;;;;;;;;;;;;27.19;21.94;101116.09;5059485;28;765;-41
2021/03/20 09:22:17;;;;;;;;;;;;;;;27.23;22.16;101122.81;5058686;28;807;-38
2021/03/20 09:24:50;;;;;;;;;;;;;;;27.20;22.31;101122.31;5058892;28;1979;-35
2021/03/20 09:27:35;;;;;;;;;;;;;;;27.37;21.82;101123.09;5058968;28;814;-34
2021/03/20 09:30:16;;;;;;;;;;;;;;;27.49;21.35;101115.44;5075946;28;1692;-35
2021/03/20 09:32:48;;;;;;;;;;;;;;;27.39;21.74;101118.38;5086559;28;963;-37
2021/03/20 09:35:31;;;;;;;;;;;;;;;27.39;21.59;101118.38;5079105;28;777;-33
2021/03/20 09:37:57;;;;;;;;;;;;;;;27.46;21.36;101113.91;5096540;28;875;-42
2021/03/20 09:40:41;;;;;;;;;;;;;;;27.60;21.50;101111.50;5097269;28;740;-35
2021/03/20 09:43:25;;;;;;;;;;;;;;;27.58;21.43;101111.66;5096303;28;1960;-34
2021/03/20 09:46:08;;;;;;;;;;;;;;;27.29;21.74;101117.72;5096942;28;764;-48
2021/03/20 09:48:40;;;;;;;;;;;;;;;27.39;21.29;101112.97;5095893;28;1010;-49
2021/03/20 09:51:25;;;;;;;;;;;;;;;27.44;21.38;101109.72;5096016;28;858;-45
2021/03/20 09:53:50;;;;;;;;;;;;;;;27.46;21.11;101108.53;5096630;28;1189;-45
2021/03/20 09:56:26;;;;;;;;;;;;;;;27.60;21.40;101108.78;5078724;28;776;-38
2021/03/20 09:58:51;;;;;;;;;;;;;;;27.58;21.05;101111.66;5096339;28;780;-31
2021/03/20 10:01:16;;;;;;;;;;;;;;;27.66;21.33;101099.97;5078642;28;855;-33
2021/03/20 10:03:50;;;;;;;;;;;;;;;27.74;21.14;101088.31;5076696;28;1971;-39
2021/03/20 10:06:18;;;;;;;;;;;;;;;27.77;21.34;101087.09;5096092;28;866;-32
2021/03/20 10:08:44;;;;;;;;;;;;;;;27.66;21.65;101093.72;5096469;28;776;-31
2021/03/20 10:11:28;;;;;;;;;;;;;;;27.57;21.49;101098.34;5096707;28;756;-35
2021/03/20 10:13:53;;;;;;;;;;;;;;;27.17;20.68;101101.91;5087025;28;1366;-30
2021/03/20 10:16:19;;;;;;;;;;;;;;;27.10;21.22;101101.75;5076641;28;748;-30
2021/03/20 10:18:53;;;;;;;;;;;;;;;27.13;21.64;101098.72;5058554;28;963;-30
2021/03/20 10:21:20;;;;;;;;;;;;;;;27.11;22.13;101094.50;5077135;28;910;-34
2021/03/20 10:23:46;;;;;;;;;;;;;;;27.60;21.68;101093.44;5080307;28;1973;-29
2021/03/20 10:26:32;;;;;;;;;;;;;;;27.09;22.39;101088.44;5062432;28;744;-31
2021/03/20 10:28:59;;;;;;;;;;;;;;;27.40;22.00;101090.31;5079465;28;1562;-30
2021/03/20 10:31:25;;;;;;;;;;;;;;;27.35;22.00;101098.97;5079940;28;1309;-31
2021/03/20 10:33:59;;;;;;;;;;;;;;;27.38;22.08;101101.31;5099547;28;940;-46
2021/03/20 10:36:29;;;;;;;;;;;;;;;27.12;19.27;101104.28;5100057;28;746;-44
2021/03/20 10:38:54;;;;;;;;;;;;;;;25.83;19.11;101105.66;5100716;28;777;-33
2021/03/20 10:41:20;;;;;;;;;;;;;;;25.29;19.11;101105.00;5100205;28;789;-41
2021/03/20 10:44:25;;;;;;;;;;;;;;;24.68;20.47;101105.81;5099890;28;1982;-45
2021/03/20 10:47:00;;;;;;;;;;;;;;;25.24;18.61;101108.16;5037132;28;1242;-36
2021/03/20 10:49:26;;;;;;;;;;;;;;;25.60;18.36;101100.88;5021443;28;807;-38
2021/03/20 10:51:52;;;;;;;;;;;;;;;25.85;18.69;101095.56;5071200;28;870;-32
2021/03/20 10:54:37;;;;;;;;;;;;;;;25.34;17.15;101105.34;5100469;28;867;-42
2021/03/20 10:57:06;;;;;;;;;;;;;;;25.89;18.33;101111.25;5099513;28;1117;-35
2021/03/20 10:59:38;;;;;;;;;;;;;;;26.01;18.86;101106.38;5099687;28;740;-38
2021/03/20 11:02:21;;;;;;;;;;;;;;;26.10;18.24;101117.19;5099062;28;954;-39
2021/03/20 11:04:47;;;;;;;;;;;;;;;23.65;18.87;101111.44;5099256;28;1897;-42
2021/03/20 11:07:13;;;;;;;;;;;;;;;23.84;19.97;101106.91;5099950;28;795;-29
2021/03/20 11:09:38;;;;;;;;;;;;;;;24.64;19.10;101123.28;5081721;28;562;-35
2021/03/20 11:12:05;;;;;;;;;;;;;;;23.91;19.92;101112.53;5099834;28;763;-31
2021/03/20 11:14:30;;;;;;;;;;;;;;;24.16;19.01;101120.81;5081344;28;864;-29
2021/03/20 11:17:03;;;;;;;;;;;;;;;24.65;18.70;101123.13;5098219;28;939;-41
2021/03/20 11:19:33;;;;;;;;;;;;;;;24.00;18.93;101103.56;5064499;28;808;-29
2021/03/20 11:22:01;;;;;;;;;;;;;;;24.82;18.83;101109.78;5081341;28;763;-48
2021/03/20 11:24:26;;;;;;;;;;;;;;;25.38;19.06;101109.41;5080436;28;1895;-36
2021/03/20 11:26:52;;;;;;;;;;;;;;;25.35;19.10;101106.19;5099769;28;836;-30
2021/03/20 11:29:18;;;;;;;;;;;;;;;24.92;19.30;101107.81;5099537;28;760;-30
2021/03/20 11:31:45;;;;;;;;;;;;;;;24.70;19.03;101104.66;5079933;28;1087;-32
2021/03/20 11:34:12;;;;;;;;;;;;;;;23.87;19.77;101106.63;5098350;28;745;-29
2021/03/20 11:36:38;;;;;;;;;;;;;;;24.08;19.03;101100.94;5099060;28;744;-30
2021/03/20 11:39:07;;;;;;;;;;;;;;;24.52;19.22;101106.53;5080863;28;1422;-33
2021/03/20 11:41:37;;;;;;;;;;;;;;;24.98;19.29;101100.97;5098631;28;890;-44
2021/03/20 11:44:09;;;;;;;;;;;;;;;24.96;19.06;101099.47;5081048;28;1968;-43
2021/03/20 11:46:35;;;;;;;;;;;;;;;24.93;18.98;101090.69;5080412;28;1013;-32
2021/03/20 11:49:01;;;;;;;;;;;;;;;24.94;19.02;101089.69;5081103;28;783;-31
2021/03/20 11:51:30;;;;;;;;;;;;;;;24.99;18.57;101077.59;5098579;28;807;-45
2021/03/20 11:54:00;;;;;;;;;;;;;;;25.09;18.64;101082.88;5099130;28;803;-32
2021/03/20 11:56:29;;;;;;;;;;;;;;;25.50;18.84;101074.94;5098847;28;759;-35
2021/03/20 11:58:54;;;;;;;;;;;;;;;25.55;19.29;101077.13;5098371;28;784;-30
2021/03/20 12:01:32;;;;;;;;;;;;;;;25.53;18.99;101074.59;5099271;28;783;-43
2021/03/20 12:04:00;;;;;;;;;;;;;;;25.76;19.12;101065.06;5078264;28;1910;-29
2021/03/20 12:06:31;;;;;;;;;;;;;;;25.53;19.25;101069.22;5078325;28;787;-32
2021/03/20 12:09:00;;;;;;;;;;;;;;;25.80;19.13;101074.53;5060682;28;745;-31
2021/03/20 12:11:44;;;;;;;;;;;;;;;25.51;19.71;101068.53;5078457;28;718;-35
2021/03/20 12:14:27;;;;;;;;;;;;;;;25.02;18.87;101064.69;5078231;28;768;-32
2021/03/20 12:17:00;;;;;;;;;;;;;;;25.62;18.89;101064.72;5078487;28;919;-30
2021/03/20 12:19:25;;;;;;;;;;;;;;;25.56;19.36;101060.81;5059853;28;740;-45
2021/03/20 12:21:53;;;;;;;;;;;;;;;25.72;19.32;101071.81;5060184;28;828;-30
2021/03/20 12:24:20;;;;;;;;;;;;;;;25.56;19.30;101063.50;5078374;28;1902;-31
2021/03/20 12:26:45;;;;;;;;;;;;;;;25.62;19.27;101055.78;5060189;28;776;-31
2021/03/20 12:29:28;;;;;;;;;;;;;;;26.09;19.53;101038.13;5060106;28;992;-31
2021/03/20 12:31:54;;;;;;;;;;;;;;;26.27;19.21;101045.22;5062884;28;1305;-39
2021/03/20 12:34:19;;;;;;;;;;;;;;;26.50;19.00;101036.44;5079361;28;795;-34
2021/03/20 12:36:48;;;;;;;;;;;;;;;26.70;19.71;101046.84;5098210;28;768;-32
2021/03/20 12:39:14;;;;;;;;;;;;;;;26.50;20.51;101049.94;5097766;28;827;-29
2021/03/20 12:41:40;;;;;;;;;;;;;;;25.76;19.66;101054.28;5097709;28;752;-35
2021/03/20 12:44:09;;;;;;;;;;;;;;;26.22;19.22;101058.38;5097965;28;1906;-42
2021/03/20 12:46:34;;;;;;;;;;;;;;;25.26;19.80;101049.59;5097102;28;958;-40
2021/03/20 12:49:00;;;;;;;;;;;;;;;26.31;19.14;101053.81;5097543;28;740;-41
2021/03/20 12:51:25;;;;;;;;;;;;;;;25.15;19.98;101060.69;5097917;28;478;-41
2021/03/20 12:53:50;;;;;;;;;;;;;;;24.24;20.98;101037.59;5079655;28;953;-35
2021/03/20 12:56:16;;;;;;;;;;;;;;;23.88;21.35;101051.88;5097333;28;827;-40
2021/03/20 12:58:41;;;;;;;;;;;;;;;23.57;21.46;101054.94;5097512;28;767;-41
2021/03/20 13:01:06;;;;;;;;;;;;;;;24.29;20.76;101046.03;5097661;28;775;-42
2021/03/20 13:03:32;;;;;;;;;;;;;;;24.61;20.37;101043.72;5095988;28;1959;-33
2021/03/20 13:05:57;;;;;;;;;;;;;;;24.82;20.19;101050.59;5097970;28;767;-43
2021/03/20 13:08:23;;;;;;;;;;;;;;;25.27;20.02;101042.38;5097570;28;843;-36
2021/03/20 13:10:48;;;;;;;;;;;;;;;25.09;19.76;101045.19;5097470;28;772;-41